地図

経路データ

SID SEASON NUMBER BASIN SUBBASIN NAME ISO_TIME NATURE LAT LON WMO_WIND WMO_PRES WMO_AGENCY TRACK_TYPE DIST2LAND LANDFALL IFLAG USA_AGENCY USA_ATCF_ID USA_LAT USA_LON USA_RECORD USA_STATUS USA_WIND USA_PRES USA_SSHS USA_R34_NE USA_R34_SE USA_R34_SW USA_R34_NW USA_R50_NE USA_R50_SE USA_R50_SW USA_R50_NW USA_R64_NE USA_R64_SE USA_R64_SW USA_R64_NW USA_POCI USA_ROCI USA_RMW USA_EYE TOKYO_LAT TOKYO_LON TOKYO_GRADE TOKYO_WIND TOKYO_PRES TOKYO_R50_DIR TOKYO_R50_LONG TOKYO_R50_SHORT TOKYO_R30_DIR TOKYO_R30_LONG TOKYO_R30_SHORT TOKYO_LAND CMA_LAT CMA_LON CMA_CAT CMA_WIND CMA_PRES HKO_LAT HKO_LON HKO_CAT HKO_WIND HKO_PRES NEWDELHI_LAT NEWDELHI_LON NEWDELHI_GRADE NEWDELHI_WIND NEWDELHI_PRES NEWDELHI_CI NEWDELHI_DP NEWDELHI_POCI REUNION_LAT REUNION_LON REUNION_TYPE REUNION_WIND REUNION_PRES REUNION_TNUM REUNION_CI REUNION_RMW REUNION_R34_NE REUNION_R34_SE REUNION_R34_SW REUNION_R34_NW REUNION_R50_NE REUNION_R50_SE REUNION_R50_SW REUNION_R50_NW REUNION_R64_NE REUNION_R64_SE REUNION_R64_SW REUNION_R64_NW BOM_LAT BOM_LON BOM_TYPE BOM_WIND BOM_PRES BOM_TNUM BOM_CI BOM_RMW BOM_R34_NE BOM_R34_SE BOM_R34_SW BOM_R34_NW BOM_R50_NE BOM_R50_SE BOM_R50_SW BOM_R50_NW BOM_R64_NE BOM_R64_SE BOM_R64_SW BOM_R64_NW BOM_ROCI BOM_POCI BOM_EYE BOM_POS_METHOD BOM_PRES_METHOD NADI_LAT NADI_LON NADI_CAT NADI_WIND NADI_PRES WELLINGTON_LAT WELLINGTON_LON WELLINGTON_WIND WELLINGTON_PRES DS824_LAT DS824_LON DS824_STAGE DS824_WIND DS824_PRES TD9636_LAT TD9636_LON TD9636_STAGE TD9636_WIND TD9636_PRES TD9635_LAT TD9635_LON TD9635_WIND TD9635_PRES TD9635_ROCI NEUMANN_LAT NEUMANN_LON NEUMANN_CLASS NEUMANN_WIND NEUMANN_PRES MLC_LAT MLC_LON MLC_CLASS MLC_WIND MLC_PRES USA_GUST BOM_GUST BOM_GUST_PER REUNION_GUST REUNION_GUST_PER USA_SEAHGT USA_SEARAD_NE USA_SEARAD_SE USA_SEARAD_SW USA_SEARAD_NW STORM_SPEED STORM_DIR
1974156N12253 1974 42 EP MM BLANCA 1974-06-05 00:00:00 TS 11.7000 -107.300 30 hurdat_epa main 843 843 O________OO___ hurdat_epa EP021974 11.7000 -107.300 TD 30 -1 11.7000 -107.300 TC 30 11.7000 -107.300 1 6 289
1974156N12253 1974 42 EP MM BLANCA 1974-06-05 03:00:00 TS 11.8008 -107.595 main 850 846 P________PP___ EP021974 11.7951 -107.592 TD 30 -1 11.7951 -107.592 TC 30 11.8236 -107.607 1 6 289
1974156N12253 1974 42 EP MM BLANCA 1974-06-05 06:00:00 TS 11.9075 -107.904 30 hurdat_epa main 858 854 O________OP___ hurdat_epa EP021974 11.9000 -107.900 TD 30 -1 11.9000 -107.900 TC 30 11.9377 -107.922 1 7 289
1974156N12253 1974 42 EP MM BLANCA 1974-06-05 09:00:00 TS 12.0185 -108.238 main 866 866 P________PP___ EP021974 12.0150 -108.235 TD 30 -1 12.0150 -108.235 TC 30 12.0329 -108.251 1 7 286
1974156N12253 1974 42 EP MM BLANCA 1974-06-05 12:00:00 TS 12.1000 -108.600 30 1004 hurdat_epa main 883 883 O________OO___ hurdat_epa EP021974 12.1000 -108.600 TD 30 1004 -1 12.1000 -108.600 TC 30 1004 12.1000 -108.600 1 25 7 277
1974156N12253 1974 42 EP MM BLANCA 1974-06-05 15:00:00 TS 12.1128 -108.989 main 910 910 P________PP___ EP021974 12.1075 -108.993 TD 30 1002 -1 12.1075 -108.993 TC 30 1002 12.1343 -108.975 1 26 8 271
1974156N12253 1974 42 EP MM BLANCA 1974-06-05 18:00:00 TS 12.1100 -109.394 30 1001 hurdat_epa main 934 934 O________OP___ hurdat_epa EP021974 12.1000 -109.400 TD 30 1001 -1 12.1000 -109.400 TC 30 1001 12.1499 -109.370 1 27 8 272
1974156N12253 1974 42 EP MM BLANCA 1974-06-05 21:00:00 TS 12.1410 -109.790 main 958 954 P________PP___ EP021974 12.1349 -109.793 TD 30 -1 12.1349 -109.793 TC 30 12.1655 -109.781 1 28 8 277
1974156N12253 1974 42 EP MM BLANCA 1974-06-06 00:00:00 TS 12.2000 -110.200 30 hurdat_epa main 973 973 O________OO___ hurdat_epa EP021974 12.2000 -110.200 TD 30 -1 12.2000 -110.200 TC 30 12.2000 -110.200 1 30 8 280
1974156N12253 1974 42 EP MM BLANCA 1974-06-06 03:00:00 TS 12.2880 -110.644 main 990 990 P________PP___ EP021974 12.2925 -110.650 TD 30 -1 12.2925 -110.650 TC 30 12.2702 -110.618 1 30 9 282
1974156N12253 1974 42 EP MM BLANCA 1974-06-06 06:00:00 TS 12.3925 -111.089 30 hurdat_epa main 1016 1016 O________OP___ hurdat_epa EP021974 12.4000 -111.100 TD 30 -1 12.4000 -111.100 TC 30 12.3623 -111.043 1 30 9 284
1974156N12253 1974 42 EP MM BLANCA 1974-06-06 09:00:00 TS 12.4886 -111.494 main 1037 1037 P________PP___ EP021974 12.4924 -111.500 TD 30 -1 12.4924 -111.500 TC 30 12.4733 -111.471 1 30 8 285
1974156N12253 1974 42 EP MM BLANCA 1974-06-06 12:00:00 TS 12.6000 -111.900 30 hurdat_epa main 1059 1059 O________OO___ hurdat_epa EP021974 12.6000 -111.900 TD 30 -1 12.6000 -111.900 TC 30 12.6000 -111.900 1 30 9 287
1974156N12253 1974 42 EP MM BLANCA 1974-06-06 15:00:00 TS 12.7411 -112.347 main 1081 1081 P________PP___ EP021974 12.7425 -112.350 TD 32 -1 12.7425 -112.350 TC 32 12.7356 -112.337 1 31 9 289
1974156N12253 1974 42 EP MM BLANCA 1974-06-06 18:00:00 TS 12.8970 -112.795 35 hurdat_epa main 1104 1104 O________OP___ hurdat_epa EP021974 12.9000 -112.800 TS 35 0 12.9000 -112.800 TC 35 12.8849 -112.772 1 32 9 290
1974156N12253 1974 42 EP MM BLANCA 1974-06-06 21:00:00 TS 13.0483 -113.205 main 1127 1120 P________PP___ EP021974 13.0499 -113.208 TS 35 0 13.0499 -113.208 TC 35 13.0418 -113.197 1 33 8 291
1974156N12253 1974 42 EP MM BLANCA 1974-06-07 00:00:00 TS 13.2000 -113.600 35 hurdat_epa main 1145 1145 O________OO___ hurdat_epa EP021974 13.2000 -113.600 TS 35 0 13.2000 -113.600 TC 35 13.2000 -113.600 2 35 8 291
1974156N12253 1974 42 EP MM BLANCA 1974-06-07 03:00:00 TS 13.3484 -114.011 main 1154 1143 P________PP___ EP021974 13.3500 -114.015 TS 35 0 13.3500 -114.015 TC 35 13.3418 -113.996 2 35 8 291
1974156N12253 1974 42 EP MM BLANCA 1974-06-07 06:00:00 TS 13.4970 -114.394 35 hurdat_epa main 1149 1143 O________OP___ hurdat_epa EP021974 13.5000 -114.400 TS 35 0 13.5000 -114.400 TC 35 13.4849 -114.368 2 35 8 293
1974156N12253 1974 42 EP MM BLANCA 1974-06-07 09:00:00 TS 13.6411 -114.725 main 1152 1141 P________PP___ EP021974 13.6424 -114.730 TS 35 0 13.6424 -114.730 TC 35 13.6356 -114.705 2 35 7 297
1974156N12253 1974 42 EP MM BLANCA 1974-06-07 12:00:00 TS 13.8000 -115.000 35 hurdat_epa main 1146 1136 O________OO___ hurdat_epa EP021974 13.8000 -115.000 TS 35 0 13.8000 -115.000 TC 35 13.8000 -115.000 2 35 6 306
1974156N12253 1974 42 EP MM BLANCA 1974-06-07 15:00:00 TS 13.9837 -115.218 main 1136 1127 P________PP___ EP021974 13.9924 -115.215 TS 42 0 13.9924 -115.215 TC 42 13.9487 -115.227 2 38 6 314
1974156N12253 1974 42 EP MM BLANCA 1974-06-07 18:00:00 TS 14.1834 -115.403 50 hurdat_epa main 1127 1118 O________OP___ hurdat_epa EP021974 14.2000 -115.400 TS 50 0 14.2000 -115.400 TC 50 14.1170 -115.416 2 42 5 317
1974156N12253 1974 42 EP MM BLANCA 1974-06-07 21:00:00 TS 14.3673 -115.587 main 1118 1110 P________PP___ EP021974 14.3774 -115.585 TS 50 0 14.3774 -115.585 TC 50 14.3268 -115.596 2 46 6 317
1974156N12253 1974 42 EP MM BLANCA 1974-06-08 00:00:00 TS 14.6000 -115.800 50 hurdat_epa main 1110 1094 O________OO___ hurdat_epa EP021974 14.6000 -115.800 TS 50 0 14.6000 -115.800 TC 50 14.6000 -115.800 2 50 7 319
1974156N12253 1974 42 EP MM BLANCA 1974-06-08 03:00:00 TS 14.9142 -116.078 main 1100 1083 P________PP___ EP021974 14.9050 -116.085 TS 45 0 14.9050 -116.085 TC 45 14.9510 -116.051 2 47 9 321
1974156N12253 1974 42 EP MM BLANCA 1974-06-08 06:00:00 TS 15.3131 -116.389 40 hurdat_epa main 1083 1060 O________OP___ hurdat_epa EP021974 15.3000 -116.400 TS 40 0 15.3000 -116.400 TC 40 15.3657 -116.343 2 45 11 326
1974156N12253 1974 42 EP MM BLANCA 1974-06-08 09:00:00 TS 15.7865 -116.697 main 1060 1040 P________PP___ EP021974 15.7775 -116.705 TS 40 0 15.7775 -116.705 TC 40 15.8225 -116.664 2 42 12 329
1974156N12253 1974 42 EP MM BLANCA 1974-06-08 12:00:00 TS 16.3000 -117.000 40 hurdat_epa main 1040 O________OO___ hurdat_epa EP021974 16.3000 -117.000 TS 40 0 16.3000 -117.000 TC 40 16.3000 -117.000 2 40 12 331

IBTrACS Databaseについて

本データベースは、米国NOAAが公開する1842年以降の世界の熱帯低気圧のベストトラックデータアーカイブInternational Best Track Archive for Climate Stewardship (IBTrACS)を、ウェブで閲覧しやすい形式に変換したものです。

最終更新日:2021-10-27